sensor_id;sensor_type;location;lat;lon;timestamp;temperature;humidity
38902;DHT22;24661;53.566;9.910;2023-02-28T00:01:28;4.20;99.90
38902;DHT22;24661;53.566;9.910;2023-02-28T00:03:53;4.20;99.90
38902;DHT22;24661;53.566;9.910;2023-02-28T00:06:19;4.20;99.90
38902;DHT22;24661;53.566;9.910;2023-02-28T00:08:47;4.20;99.90
38902;DHT22;24661;53.566;9.910;2023-02-28T00:11:14;5.20;99.90
38902;DHT22;24661;53.566;9.910;2023-02-28T00:13:43;4.10;99.90
38902;DHT22;24661;53.566;9.910;2023-02-28T00:16:16;4.10;99.90
38902;DHT22;24661;53.566;9.910;2023-02-28T00:18:43;4.00;99.90
38902;DHT22;24661;53.566;9.910;2023-02-28T00:21:10;4.00;99.90
38902;DHT22;24661;53.566;9.910;2023-02-28T00:23:36;4.00;99.90
38902;DHT22;24661;53.566;9.910;2023-02-28T00:26:02;3.90;99.90
38902;DHT22;24661;53.566;9.910;2023-02-28T00:28:28;3.90;99.90
38902;DHT22;24661;53.566;9.910;2023-02-28T00:30:54;3.90;99.90
38902;DHT22;24661;53.566;9.910;2023-02-28T00:33:20;4.00;99.90
38902;DHT22;24661;53.566;9.910;2023-02-28T00:35:46;3.90;99.90
38902;DHT22;24661;53.566;9.910;2023-02-28T00:38:13;4.00;99.90
38902;DHT22;24661;53.566;9.910;2023-02-28T00:40:39;3.90;99.90
38902;DHT22;24661;53.566;9.910;2023-02-28T00:43:05;3.90;99.90
38902;DHT22;24661;53.566;9.910;2023-02-28T00:45:31;3.90;99.90
38902;DHT22;24661;53.566;9.910;2023-02-28T00:47:56;3.90;99.90
38902;DHT22;24661;53.566;9.910;2023-02-28T00:50:23;3.80;99.90
38902;DHT22;24661;53.566;9.910;2023-02-28T00:52:48;3.80;99.90
38902;DHT22;24661;53.566;9.910;2023-02-28T00:55:14;3.80;99.90
38902;DHT22;24661;53.566;9.910;2023-02-28T00:57:40;3.80;99.90
38902;DHT22;24661;53.566;9.910;2023-02-28T01:00:06;3.70;99.90
38902;DHT22;24661;53.566;9.910;2023-02-28T01:02:32;3.70;99.90
38902;DHT22;24661;53.566;9.910;2023-02-28T01:04:58;3.70;99.90
38902;DHT22;24661;53.566;9.910;2023-02-28T01:07:23;3.70;99.90
38902;DHT22;24661;53.566;9.910;2023-02-28T01:09:49;3.60;99.90
38902;DHT22;24661;53.566;9.910;2023-02-28T01:12:15;3.50;99.90
38902;DHT22;24661;53.566;9.910;2023-02-28T01:14:41;3.40;99.90
38902;DHT22;24661;53.566;9.910;2023-02-28T01:17:07;3.40;99.90
38902;DHT22;24661;53.566;9.910;2023-02-28T01:19:34;3.30;99.90
38902;DHT22;24661;53.566;9.910;2023-02-28T01:22:02;3.30;99.90
38902;DHT22;24661;53.566;9.910;2023-02-28T01:24:28;3.30;99.90
38902;DHT22;24661;53.566;9.910;2023-02-28T01:26:54;3.30;99.90
38902;DHT22;24661;53.566;9.910;2023-02-28T01:29:19;1.70;99.90
38902;DHT22;24661;53.566;9.910;2023-02-28T01:31:45;3.20;99.90
38902;DHT22;24661;53.566;9.910;2023-02-28T01:34:10;3.20;99.90
38902;DHT22;24661;53.566;9.910;2023-02-28T01:36:36;3.20;99.90
38902;DHT22;24661;53.566;9.910;2023-02-28T01:39:02;3.10;99.90
38902;DHT22;24661;53.566;9.910;2023-02-28T01:41:30;2.90;99.90
38902;DHT22;24661;53.566;9.910;2023-02-28T01:44:06;2.90;99.90
38902;DHT22;24661;53.566;9.910;2023-02-28T01:46:33;2.70;99.90
38902;DHT22;24661;53.566;9.910;2023-02-28T01:49:09;2.70;99.90
38902;DHT22;24661;53.566;9.910;2023-02-28T01:54:05;2.80;99.90
38902;DHT22;24661;53.566;9.910;2023-02-28T01:56:41;2.80;99.90
38902;DHT22;24661;53.566;9.910;2023-02-28T01:59:07;2.80;99.90
38902;DHT22;24661;53.566;9.910;2023-02-28T02:01:33;2.80;99.90
38902;DHT22;24661;53.566;9.910;2023-02-28T02:04:01;2.80;99.90
38902;DHT22;24661;53.566;9.910;2023-02-28T02:06:36;2.80;99.90
38902;DHT22;24661;53.566;9.910;2023-02-28T02:09:03;2.90;99.90
38902;DHT22;24661;53.566;9.910;2023-02-28T02:11:28;2.80;99.90
38902;DHT22;24661;53.566;9.910;2023-02-28T02:17:17;2.90;99.90
38902;DHT22;24661;53.566;9.910;2023-02-28T02:29:44;3.00;99.90
38902;DHT22;24661;53.566;9.910;2023-02-28T02:35:28;3.10;99.90
38902;DHT22;24661;53.566;9.910;2023-02-28T02:39:00;3.00;99.90
38902;DHT22;24661;53.566;9.910;2023-02-28T02:43:48;3.00;99.90
38902;DHT22;24661;53.566;9.910;2023-02-28T02:46:21;3.10;99.90
38902;DHT22;24661;53.566;9.910;2023-02-28T02:48:50;3.20;99.90
38902;DHT22;24661;53.566;9.910;2023-02-28T02:51:21;3.00;99.90
38902;DHT22;24661;53.566;9.910;2023-02-28T02:53:55;2.90;99.90
38902;DHT22;24661;53.566;9.910;2023-02-28T02:56:26;2.90;99.90
38902;DHT22;24661;53.566;9.910;2023-02-28T02:58:55;2.90;99.90
38902;DHT22;24661;53.566;9.910;2023-02-28T03:01:25;2.70;99.90
38902;DHT22;24661;53.566;9.910;2023-02-28T03:04:01;2.50;99.90
38902;DHT22;24661;53.566;9.910;2023-02-28T03:06:27;2.40;99.90
38902;DHT22;24661;53.566;9.910;2023-02-28T03:08:53;2.40;99.90
38902;DHT22;24661;53.566;9.910;2023-02-28T03:11:18;2.40;99.90
38902;DHT22;24661;53.566;9.910;2023-02-28T03:22:29;2.00;99.90
38902;DHT22;24661;53.566;9.910;2023-02-28T03:25:06;2.00;99.90
38902;DHT22;24661;53.566;9.910;2023-02-28T03:27:54;2.00;99.90
38902;DHT22;24661;53.566;9.910;2023-02-28T03:33:09;1.90;99.90
38902;DHT22;24661;53.566;9.910;2023-02-28T03:35:55;1.90;99.90
38902;DHT22;24661;53.566;9.910;2023-02-28T03:38:31;2.00;99.90
38902;DHT22;24661;53.566;9.910;2023-02-28T03:41:06;2.00;99.90
38902;DHT22;24661;53.566;9.910;2023-02-28T03:43:36;2.00;99.90
38902;DHT22;24661;53.566;9.910;2023-02-28T03:46:08;1.90;99.90
38902;DHT22;24661;53.566;9.910;2023-02-28T03:48:44;1.80;99.90
38902;DHT22;24661;53.566;9.910;2023-02-28T03:51:15;1.70;99.90
38902;DHT22;24661;53.566;9.910;2023-02-28T03:53:51;1.60;99.90
38902;DHT22;24661;53.566;9.910;2023-02-28T03:56:21;1.50;99.90
38902;DHT22;24661;53.566;9.910;2023-02-28T03:58:51;1.50;99.90
38902;DHT22;24661;53.566;9.910;2023-02-28T04:01:26;1.40;99.90
38902;DHT22;24661;53.566;9.910;2023-02-28T04:03:53;1.30;99.90
38902;DHT22;24661;53.566;9.910;2023-02-28T04:06:21;1.30;99.90
38902;DHT22;24661;53.566;9.910;2023-02-28T04:08:48;1.20;99.90
38902;DHT22;24661;53.566;9.910;2023-02-28T04:11:32;1.20;99.90
38902;DHT22;24661;53.566;9.910;2023-02-28T04:14:00;1.10;99.90
38902;DHT22;24661;53.566;9.910;2023-02-28T04:16:25;1.00;99.90
38902;DHT22;24661;53.566;9.910;2023-02-28T04:18:51;0.80;99.90
38902;DHT22;24661;53.566;9.910;2023-02-28T04:21:18;0.70;99.90
38902;DHT22;24661;53.566;9.910;2023-02-28T04:23:47;0.60;99.90
38902;DHT22;24661;53.566;9.910;2023-02-28T04:26:13;0.60;99.90
38902;DHT22;24661;53.566;9.910;2023-02-28T04:28:38;0.60;99.90
38902;DHT22;24661;53.566;9.910;2023-02-28T04:31:04;0.50;99.90
38902;DHT22;24661;53.566;9.910;2023-02-28T04:33:32;0.40;99.90
38902;DHT22;24661;53.566;9.910;2023-02-28T04:35:59;0.50;99.90
38902;DHT22;24661;53.566;9.910;2023-02-28T04:38:25;2.20;99.90
38902;DHT22;24661;53.566;9.910;2023-02-28T04:40:50;0.40;99.90
38902;DHT22;24661;53.566;9.910;2023-02-28T04:43:16;0.30;99.90
38902;DHT22;24661;53.566;9.910;2023-02-28T04:45:41;0.20;99.90
38902;DHT22;24661;53.566;9.910;2023-02-28T04:48:07;0.20;99.90
38902;DHT22;24661;53.566;9.910;2023-02-28T04:50:32;0.30;99.90
38902;DHT22;24661;53.566;9.910;2023-02-28T04:52:58;0.30;99.90
38902;DHT22;24661;53.566;9.910;2023-02-28T04:55:24;0.30;99.90
38902;DHT22;24661;53.566;9.910;2023-02-28T04:57:49;0.30;99.90
38902;DHT22;24661;53.566;9.910;2023-02-28T05:00:15;0.30;99.90
38902;DHT22;24661;53.566;9.910;2023-02-28T05:02:42;0.30;99.90
38902;DHT22;24661;53.566;9.910;2023-02-28T05:05:08;0.30;99.90
38902;DHT22;24661;53.566;9.910;2023-02-28T05:07:34;0.30;99.90
38902;DHT22;24661;53.566;9.910;2023-02-28T05:09:59;0.20;99.90
38902;DHT22;24661;53.566;9.910;2023-02-28T05:12:25;0.20;99.90
38902;DHT22;24661;53.566;9.910;2023-02-28T05:14:50;0.10;99.90
38902;DHT22;24661;53.566;9.910;2023-02-28T05:17:16;0.00;99.90
38902;DHT22;24661;53.566;9.910;2023-02-28T05:19:42;0.10;99.90
38902;DHT22;24661;53.566;9.910;2023-02-28T05:22:13;0.10;99.90
38902;DHT22;24661;53.566;9.910;2023-02-28T05:24:38;0.10;99.90
38902;DHT22;24661;53.566;9.910;2023-02-28T05:27:04;0.10;99.90
38902;DHT22;24661;53.566;9.910;2023-02-28T05:29:30;0.10;99.90
38902;DHT22;24661;53.566;9.910;2023-02-28T05:31:55;0.00;99.90
38902;DHT22;24661;53.566;9.910;2023-02-28T05:34:21;0.00;99.90
38902;DHT22;24661;53.566;9.910;2023-02-28T05:36:47;0.00;99.90
38902;DHT22;24661;53.566;9.910;2023-02-28T05:42:37;-0.20;99.90
38902;DHT22;24661;53.566;9.910;2023-02-28T05:45:04;-0.10;99.90
38902;DHT22;24661;53.566;9.910;2023-02-28T05:47:30;-0.20;99.90
38902;DHT22;24661;53.566;9.910;2023-02-28T05:49:56;-0.10;99.90
38902;DHT22;24661;53.566;9.910;2023-02-28T05:52:22;-0.10;99.90
38902;DHT22;24661;53.566;9.910;2023-02-28T05:54:47;-0.20;99.90
38902;DHT22;24661;53.566;9.910;2023-02-28T05:57:13;-0.10;99.90
38902;DHT22;24661;53.566;9.910;2023-02-28T05:59:39;-0.10;99.90
38902;DHT22;24661;53.566;9.910;2023-02-28T06:02:06;-0.10;99.90
38902;DHT22;24661;53.566;9.910;2023-02-28T06:04:32;-0.10;99.90
38902;DHT22;24661;53.566;9.910;2023-02-28T06:06:58;-0.20;99.90
38902;DHT22;24661;53.566;9.910;2023-02-28T06:09:23;-0.20;99.90
38902;DHT22;24661;53.566;9.910;2023-02-28T06:11:50;-0.20;99.90
38902;DHT22;24661;53.566;9.910;2023-02-28T06:14:17;-0.20;99.90
38902;DHT22;24661;53.566;9.910;2023-02-28T06:16:43;-0.20;99.90
38902;DHT22;24661;53.566;9.910;2023-02-28T06:19:10;-0.20;99.90
38902;DHT22;24661;53.566;9.910;2023-02-28T06:21:36;-0.20;99.90
38902;DHT22;24661;53.566;9.910;2023-02-28T06:24:02;-0.20;99.90
38902;DHT22;24661;53.566;9.910;2023-02-28T06:26:28;-0.20;99.90
38902;DHT22;24661;53.566;9.910;2023-02-28T06:28:54;-0.30;99.90
38902;DHT22;24661;53.566;9.910;2023-02-28T06:31:20;-0.40;99.90
38902;DHT22;24661;53.566;9.910;2023-02-28T06:33:47;-0.40;99.90
38902;DHT22;24661;53.566;9.910;2023-02-28T06:36:14;-0.30;99.90
38902;DHT22;24661;53.566;9.910;2023-02-28T06:38:40;-1.00;99.90
38902;DHT22;24661;53.566;9.910;2023-02-28T06:41:07;-0.20;99.90
38902;DHT22;24661;53.566;9.910;2023-02-28T06:43:39;-0.10;99.90
38902;DHT22;24661;53.566;9.910;2023-02-28T06:46:08;-0.10;99.90
38902;DHT22;24661;53.566;9.910;2023-02-28T06:48:34;0.00;99.90
38902;DHT22;24661;53.566;9.910;2023-02-28T06:51:08;0.00;99.90
38902;DHT22;24661;53.566;9.910;2023-02-28T06:53:34;0.00;99.90
38902;DHT22;24661;53.566;9.910;2023-02-28T06:56:04;0.10;99.90
38902;DHT22;24661;53.566;9.910;2023-02-28T06:58:31;0.10;99.90
38902;DHT22;24661;53.566;9.910;2023-02-28T07:00:56;0.20;99.90
38902;DHT22;24661;53.566;9.910;2023-02-28T07:03:22;0.20;99.90
38902;DHT22;24661;53.566;9.910;2023-02-28T07:05:48;0.30;99.90
38902;DHT22;24661;53.566;9.910;2023-02-28T07:08:14;0.20;99.90
38902;DHT22;24661;53.566;9.910;2023-02-28T07:10:40;0.30;99.90
38902;DHT22;24661;53.566;9.910;2023-02-28T07:13:06;0.30;99.90
38902;DHT22;24661;53.566;9.910;2023-02-28T07:15:32;0.40;99.90
38902;DHT22;24661;53.566;9.910;2023-02-28T07:17:58;0.40;99.90
38902;DHT22;24661;53.566;9.910;2023-02-28T07:20:24;0.40;99.90
38902;DHT22;24661;53.566;9.910;2023-02-28T07:22:50;0.50;99.90
38902;DHT22;24661;53.566;9.910;2023-02-28T07:25:26;0.60;99.90
38902;DHT22;24661;53.566;9.910;2023-02-28T07:27:53;0.60;99.90
38902;DHT22;24661;53.566;9.910;2023-02-28T07:30:19;0.70;99.90
38902;DHT22;24661;53.566;9.910;2023-02-28T07:32:45;0.70;99.90
38902;DHT22;24661;53.566;9.910;2023-02-28T07:35:11;0.80;99.90
38902;DHT22;24661;53.566;9.910;2023-02-28T07:37:37;0.70;99.90
38902;DHT22;24661;53.566;9.910;2023-02-28T07:40:08;0.90;99.90
38902;DHT22;24661;53.566;9.910;2023-02-28T07:42:35;1.00;99.90
38902;DHT22;24661;53.566;9.910;2023-02-28T07:45:01;1.10;99.90
38902;DHT22;24661;53.566;9.910;2023-02-28T07:47:29;1.20;99.90
38902;DHT22;24661;53.566;9.910;2023-02-28T07:49:55;1.40;99.90
38902;DHT22;24661;53.566;9.910;2023-02-28T07:52:21;1.40;99.90
38902;DHT22;24661;53.566;9.910;2023-02-28T07:54:49;1.50;99.90
38902;DHT22;24661;53.566;9.910;2023-02-28T07:57:15;1.60;99.90
38902;DHT22;24661;53.566;9.910;2023-02-28T07:59:44;1.70;99.90
38902;DHT22;24661;53.566;9.910;2023-02-28T08:02:14;1.80;99.90
38902;DHT22;24661;53.566;9.910;2023-02-28T08:04:40;1.90;99.90
38902;DHT22;24661;53.566;9.910;2023-02-28T08:07:06;2.10;99.90
38902;DHT22;24661;53.566;9.910;2023-02-28T08:09:32;2.10;99.90
38902;DHT22;24661;53.566;9.910;2023-02-28T08:11:59;2.10;99.90
38902;DHT22;24661;53.566;9.910;2023-02-28T08:14:25;2.20;99.90
38902;DHT22;24661;53.566;9.910;2023-02-28T08:16:51;2.30;99.90
38902;DHT22;24661;53.566;9.910;2023-02-28T08:19:16;2.40;99.90
38902;DHT22;24661;53.566;9.910;2023-02-28T08:21:42;2.50;99.90
38902;DHT22;24661;53.566;9.910;2023-02-28T08:24:08;2.60;99.90
38902;DHT22;24661;53.566;9.910;2023-02-28T08:26:33;2.70;99.90
38902;DHT22;24661;53.566;9.910;2023-02-28T08:28:59;2.80;99.90
38902;DHT22;24661;53.566;9.910;2023-02-28T08:31:25;2.90;99.90
38902;DHT22;24661;53.566;9.910;2023-02-28T08:33:50;3.00;99.90
38902;DHT22;24661;53.566;9.910;2023-02-28T08:36:19;3.10;99.90
38902;DHT22;24661;53.566;9.910;2023-02-28T08:38:45;3.10;99.90
38902;DHT22;24661;53.566;9.910;2023-02-28T08:41:12;3.20;99.90
38902;DHT22;24661;53.566;9.910;2023-02-28T08:43:38;3.20;99.90
38902;DHT22;24661;53.566;9.910;2023-02-28T08:46:05;3.30;99.90
38902;DHT22;24661;53.566;9.910;2023-02-28T08:48:33;3.30;99.90
38902;DHT22;24661;53.566;9.910;2023-02-28T08:51:10;3.40;99.90
38902;DHT22;24661;53.566;9.910;2023-02-28T08:53:37;3.40;99.90
38902;DHT22;24661;53.566;9.910;2023-02-28T08:56:05;3.40;99.90
38902;DHT22;24661;53.566;9.910;2023-02-28T08:58:31;3.50;99.90
38902;DHT22;24661;53.566;9.910;2023-02-28T09:00:57;3.00;99.90
38902;DHT22;24661;53.566;9.910;2023-02-28T09:03:23;3.60;99.90
38902;DHT22;24661;53.566;9.910;2023-02-28T09:05:55;3.70;99.90
38902;DHT22;24661;53.566;9.910;2023-02-28T09:08:22;3.70;99.90
38902;DHT22;24661;53.566;9.910;2023-02-28T09:10:47;3.80;99.90
38902;DHT22;24661;53.566;9.910;2023-02-28T09:13:13;3.90;99.90
38902;DHT22;24661;53.566;9.910;2023-02-28T09:15:39;4.00;99.90
38902;DHT22;24661;53.566;9.910;2023-02-28T09:18:05;4.20;99.90
38902;DHT22;24661;53.566;9.910;2023-02-28T09:20:30;4.20;99.90
38902;DHT22;24661;53.566;9.910;2023-02-28T09:22:56;4.30;99.90
38902;DHT22;24661;53.566;9.910;2023-02-28T09:25:21;4.40;99.90
38902;DHT22;24661;53.566;9.910;2023-02-28T09:27:47;4.50;99.90
38902;DHT22;24661;53.566;9.910;2023-02-28T09:30:14;4.60;99.90
38902;DHT22;24661;53.566;9.910;2023-02-28T09:32:39;4.60;99.90
38902;DHT22;24661;53.566;9.910;2023-02-28T09:35:06;4.60;99.90
38902;DHT22;24661;53.566;9.910;2023-02-28T09:37:32;4.70;99.90
38902;DHT22;24661;53.566;9.910;2023-02-28T09:39:57;4.80;99.90
38902;DHT22;24661;53.566;9.910;2023-02-28T09:42:33;4.80;99.90
38902;DHT22;24661;53.566;9.910;2023-02-28T09:45:02;4.90;99.90
38902;DHT22;24661;53.566;9.910;2023-02-28T09:47:36;4.90;99.90
38902;DHT22;24661;53.566;9.910;2023-02-28T09:52:49;4.90;99.90
38902;DHT22;24661;53.566;9.910;2023-02-28T09:57:44;5.00;99.90
38902;DHT22;24661;53.566;9.910;2023-02-28T10:00:33;5.10;99.90
38902;DHT22;24661;53.566;9.910;2023-02-28T10:06:06;5.20;99.90
38902;DHT22;24661;53.566;9.910;2023-02-28T10:11:15;5.30;99.90
38902;DHT22;24661;53.566;9.910;2023-02-28T10:14:01;5.30;99.90
38902;DHT22;24661;53.566;9.910;2023-02-28T10:16:40;5.40;99.90
38902;DHT22;24661;53.566;9.910;2023-02-28T10:19:17;5.40;99.90
38902;DHT22;24661;53.566;9.910;2023-02-28T10:22:04;5.50;99.90
38902;DHT22;24661;53.566;9.910;2023-02-28T10:25:00;5.60;99.90
38902;DHT22;24661;53.566;9.910;2023-02-28T10:27:32;5.70;99.90
38902;DHT22;24661;53.566;9.910;2023-02-28T10:30:00;5.80;99.90
38902;DHT22;24661;53.566;9.910;2023-02-28T10:32:32;5.90;99.90
38902;DHT22;24661;53.566;9.910;2023-02-28T10:35:17;6.00;99.90
38902;DHT22;24661;53.566;9.910;2023-02-28T10:37:46;6.00;99.90
38902;DHT22;24661;53.566;9.910;2023-02-28T10:42:56;5.90;99.90
38902;DHT22;24661;53.566;9.910;2023-02-28T10:45:22;5.90;99.90
38902;DHT22;24661;53.566;9.910;2023-02-28T10:47:55;5.90;99.90
38902;DHT22;24661;53.566;9.910;2023-02-28T10:53:14;6.10;99.90
38902;DHT22;24661;53.566;9.910;2023-02-28T10:55:41;6.10;99.90
38902;DHT22;24661;53.566;9.910;2023-02-28T10:58:24;6.20;99.90
38902;DHT22;24661;53.566;9.910;2023-02-28T11:00:51;6.00;99.90
38902;DHT22;24661;53.566;9.910;2023-02-28T11:03:44;6.10;99.90
38902;DHT22;24661;53.566;9.910;2023-02-28T11:06:19;6.10;99.90
38902;DHT22;24661;53.566;9.910;2023-02-28T11:08:56;6.10;99.90
38902;DHT22;24661;53.566;9.910;2023-02-28T11:11:29;6.20;99.90
38902;DHT22;24661;53.566;9.910;2023-02-28T11:14:03;6.20;99.90
38902;DHT22;24661;53.566;9.910;2023-02-28T11:16:37;6.20;99.90
38902;DHT22;24661;53.566;9.910;2023-02-28T11:19:06;6.00;99.90
38902;DHT22;24661;53.566;9.910;2023-02-28T11:21:50;6.00;99.90
38902;DHT22;24661;53.566;9.910;2023-02-28T11:24:31;6.00;99.90
38902;DHT22;24661;53.566;9.910;2023-02-28T11:26:59;6.10;99.90
38902;DHT22;24661;53.566;9.910;2023-02-28T11:29:28;6.10;99.90
38902;DHT22;24661;53.566;9.910;2023-02-28T11:32:18;6.30;99.90
38902;DHT22;24661;53.566;9.910;2023-02-28T11:34:45;6.50;99.90
38902;DHT22;24661;53.566;9.910;2023-02-28T11:37:17;6.50;99.90
38902;DHT22;24661;53.566;9.910;2023-02-28T11:39:44;6.70;99.90
38902;DHT22;24661;53.566;9.910;2023-02-28T11:47:52;6.70;99.90
38902;DHT22;24661;53.566;9.910;2023-02-28T11:55:52;6.80;99.90
38902;DHT22;24661;53.566;9.910;2023-02-28T12:01:26;6.50;99.90
38902;DHT22;24661;53.566;9.910;2023-02-28T12:07:24;6.70;99.90
38902;DHT22;24661;53.566;9.910;2023-02-28T12:18:42;6.80;99.90
38902;DHT22;24661;53.566;9.910;2023-02-28T12:26:51;6.80;99.90
38902;DHT22;24661;53.566;9.910;2023-02-28T12:29:43;6.80;99.90
38902;DHT22;24661;53.566;9.910;2023-02-28T12:34:45;7.00;99.90
38902;DHT22;24661;53.566;9.910;2023-02-28T12:37:38;7.10;99.90
38902;DHT22;24661;53.566;9.910;2023-02-28T12:40:28;7.20;99.90
38902;DHT22;24661;53.566;9.910;2023-02-28T12:43:09;7.30;99.90
38902;DHT22;24661;53.566;9.910;2023-02-28T12:45:50;7.20;99.90
38902;DHT22;24661;53.566;9.910;2023-02-28T12:48:42;7.30;99.90
38902;DHT22;24661;53.566;9.910;2023-02-28T12:51:09;7.40;99.90
38902;DHT22;24661;53.566;9.910;2023-02-28T12:53:42;7.60;99.90
38902;DHT22;24661;53.566;9.910;2023-02-28T12:56:18;7.50;99.90
38902;DHT22;24661;53.566;9.910;2023-02-28T12:58:52;7.50;99.90
38902;DHT22;24661;53.566;9.910;2023-02-28T13:09:38;7.30;99.90
38902;DHT22;24661;53.566;9.910;2023-02-28T13:12:13;7.40;99.90
38902;DHT22;24661;53.566;9.910;2023-02-28T13:14:39;7.40;99.90
38902;DHT22;24661;53.566;9.910;2023-02-28T13:19:42;7.60;99.90
38902;DHT22;24661;53.566;9.910;2023-02-28T13:25:01;7.80;99.90
38902;DHT22;24661;53.566;9.910;2023-02-28T13:27:38;7.90;99.90
38902;DHT22;24661;53.566;9.910;2023-02-28T13:38:45;7.90;99.90
38902;DHT22;24661;53.566;9.910;2023-02-28T13:44:03;8.00;99.90
38902;DHT22;24661;53.566;9.910;2023-02-28T13:46:30;8.10;99.90
38902;DHT22;24661;53.566;9.910;2023-02-28T14:05:35;8.70;99.90
38902;DHT22;24661;53.566;9.910;2023-02-28T14:08:15;12.60;99.90
38902;DHT22;24661;53.566;9.910;2023-02-28T14:11:04;16.80;88.30
38902;DHT22;24661;53.566;9.910;2023-02-28T14:19:26;19.00;85.00
38902;DHT22;24661;53.566;9.910;2023-02-28T14:25:08;20.50;80.10
38902;DHT22;24661;53.566;9.910;2023-02-28T14:27:53;21.20;78.20
38902;DHT22;24661;53.566;9.910;2023-02-28T14:30:43;21.80;71.20
38902;DHT22;24661;53.566;9.910;2023-02-28T14:33:43;20.80;70.10
38902;DHT22;24661;53.566;9.910;2023-02-28T14:36:18;20.00;71.70
38902;DHT22;24661;53.566;9.910;2023-02-28T14:38:52;17.40;75.60
38902;DHT22;24661;53.566;9.910;2023-02-28T14:41:32;15.80;77.20
38902;DHT22;24661;53.566;9.910;2023-02-28T14:44:01;13.90;80.40
38902;DHT22;24661;53.566;9.910;2023-02-28T14:46:37;12.80;82.30
38902;DHT22;24661;53.566;9.910;2023-02-28T14:49:05;11.60;83.30
38902;DHT22;24661;53.566;9.910;2023-02-28T14:51:33;11.10;85.90
38902;DHT22;24661;53.566;9.910;2023-02-28T14:54:01;10.70;85.70
38902;DHT22;24661;53.566;9.910;2023-02-28T14:56:36;10.00;86.40
38902;DHT22;24661;53.566;9.910;2023-02-28T14:59:02;9.60;88.90
38902;DHT22;24661;53.566;9.910;2023-02-28T15:01:28;9.40;90.00
38902;DHT22;24661;53.566;9.910;2023-02-28T15:04:03;9.00;90.20
38902;DHT22;24661;53.566;9.910;2023-02-28T15:06:30;8.70;90.80
38902;DHT22;24661;53.566;9.910;2023-02-28T15:09:17;8.30;90.80
38902;DHT22;24661;53.566;9.910;2023-02-28T15:11:47;8.30;91.80
38902;DHT22;24661;53.566;9.910;2023-02-28T15:14:19;8.20;91.30
38902;DHT22;24661;53.566;9.910;2023-02-28T15:16:48;8.10;91.70
38902;DHT22;24661;53.566;9.910;2023-02-28T15:19:23;8.00;92.30
38902;DHT22;24661;53.566;9.910;2023-02-28T15:21:58;7.80;92.30
38902;DHT22;24661;53.566;9.910;2023-02-28T15:24:47;7.80;92.60
38902;DHT22;24661;53.566;9.910;2023-02-28T15:27:26;7.60;92.80
38902;DHT22;24661;53.566;9.910;2023-02-28T15:29:58;8.40;93.60
38902;DHT22;24661;53.566;9.910;2023-02-28T15:34:57;7.40;93.50
38902;DHT22;24661;53.566;9.910;2023-02-28T15:37:28;7.40;93.50
38902;DHT22;24661;53.566;9.910;2023-02-28T15:39:58;7.30;93.90
38902;DHT22;24661;53.566;9.910;2023-02-28T15:42:31;7.20;94.10
38902;DHT22;24661;53.566;9.910;2023-02-28T15:44:57;7.20;94.10
38902;DHT22;24661;53.566;9.910;2023-02-28T15:47:27;7.10;94.20
38902;DHT22;24661;53.566;9.910;2023-02-28T15:49:58;7.00;94.50
38902;DHT22;24661;53.566;9.910;2023-02-28T15:52:38;7.00;94.70
38902;DHT22;24661;53.566;9.910;2023-02-28T15:55:19;6.90;95.70
38902;DHT22;24661;53.566;9.910;2023-02-28T15:57:48;6.90;95.20
38902;DHT22;24661;53.566;9.910;2023-02-28T16:00:18;6.80;95.40
38902;DHT22;24661;53.566;9.910;2023-02-28T16:02:44;6.70;95.30
38902;DHT22;24661;53.566;9.910;2023-02-28T16:07:42;6.60;95.30
38902;DHT22;24661;53.566;9.910;2023-02-28T16:10:11;6.50;96.10
38902;DHT22;24661;53.566;9.910;2023-02-28T16:12:41;6.50;96.00
38902;DHT22;24661;53.566;9.910;2023-02-28T16:17:46;5.80;96.50
38902;DHT22;24661;53.566;9.910;2023-02-28T16:20:21;6.30;97.30
38902;DHT22;24661;53.566;9.910;2023-02-28T16:22:47;6.20;97.40
38902;DHT22;24661;53.566;9.910;2023-02-28T16:25:16;6.10;97.30
38902;DHT22;24661;53.566;9.910;2023-02-28T16:27:44;6.10;96.80
38902;DHT22;24661;53.566;9.910;2023-02-28T16:30:19;6.10;97.10
38902;DHT22;24661;53.566;9.910;2023-02-28T16:32:46;6.00;97.70
38902;DHT22;24661;53.566;9.910;2023-02-28T16:35:12;6.00;97.30
38902;DHT22;24661;53.566;9.910;2023-02-28T16:37:40;5.90;97.70
38902;DHT22;24661;53.566;9.910;2023-02-28T16:40:12;5.80;99.10
38902;DHT22;24661;53.566;9.910;2023-02-28T16:42:39;5.70;99.30
38902;DHT22;24661;53.566;9.910;2023-02-28T16:45:08;5.60;99.80
38902;DHT22;24661;53.566;9.910;2023-02-28T16:47:37;5.50;99.90
38902;DHT22;24661;53.566;9.910;2023-02-28T16:50:13;5.40;99.90
38902;DHT22;24661;53.566;9.910;2023-02-28T16:52:39;5.30;99.90
38902;DHT22;24661;53.566;9.910;2023-02-28T16:55:05;5.20;99.90
38902;DHT22;24661;53.566;9.910;2023-02-28T16:57:31;5.20;99.90
38902;DHT22;24661;53.566;9.910;2023-02-28T16:59:57;5.00;99.90
38902;DHT22;24661;53.566;9.910;2023-02-28T17:02:23;4.90;99.90
38902;DHT22;24661;53.566;9.910;2023-02-28T17:04:49;4.70;99.90
38902;DHT22;24661;53.566;9.910;2023-02-28T17:07:15;4.60;99.90
38902;DHT22;24661;53.566;9.910;2023-02-28T17:09:43;4.40;99.90
38902;DHT22;24661;53.566;9.910;2023-02-28T17:12:09;4.40;99.90
38902;DHT22;24661;53.566;9.910;2023-02-28T17:14:36;4.20;99.90
38902;DHT22;24661;53.566;9.910;2023-02-28T17:17:04;4.10;99.90
38902;DHT22;24661;53.566;9.910;2023-02-28T17:19:30;4.00;99.90
38902;DHT22;24661;53.566;9.910;2023-02-28T17:21:56;3.90;99.90
38902;DHT22;24661;53.566;9.910;2023-02-28T17:24:22;3.80;99.90
38902;DHT22;24661;53.566;9.910;2023-02-28T17:26:48;3.60;99.90
38902;DHT22;24661;53.566;9.910;2023-02-28T17:29:19;3.50;99.90
38902;DHT22;24661;53.566;9.910;2023-02-28T17:31:45;3.40;99.90
38902;DHT22;24661;53.566;9.910;2023-02-28T17:34:12;3.30;99.90
38902;DHT22;24661;53.566;9.910;2023-02-28T17:36:45;3.20;99.90
38902;DHT22;24661;53.566;9.910;2023-02-28T17:39:13;3.20;99.90
38902;DHT22;24661;53.566;9.910;2023-02-28T17:41:50;3.20;99.90
38902;DHT22;24661;53.566;9.910;2023-02-28T17:44:16;3.10;99.90
38902;DHT22;24661;53.566;9.910;2023-02-28T17:46:42;3.00;99.90
38902;DHT22;24661;53.566;9.910;2023-02-28T17:49:08;3.00;99.90
38902;DHT22;24661;53.566;9.910;2023-02-28T17:51:35;2.90;99.90
38902;DHT22;24661;53.566;9.910;2023-02-28T17:54:01;3.00;99.90
38902;DHT22;24661;53.566;9.910;2023-02-28T17:56:26;2.80;99.90
38902;DHT22;24661;53.566;9.910;2023-02-28T17:58:54;2.70;99.90
38902;DHT22;24661;53.566;9.910;2023-02-28T18:01:21;2.70;99.90
38902;DHT22;24661;53.566;9.910;2023-02-28T18:03:48;3.70;99.90
38902;DHT22;24661;53.566;9.910;2023-02-28T18:06:18;2.60;99.90
38902;DHT22;24661;53.566;9.910;2023-02-28T18:08:44;2.50;99.90
38902;DHT22;24661;53.566;9.910;2023-02-28T18:11:11;2.50;99.90
38902;DHT22;24661;53.566;9.910;2023-02-28T18:13:48;2.40;99.90
38902;DHT22;24661;53.566;9.910;2023-02-28T18:16:15;2.30;99.90
38902;DHT22;24661;53.566;9.910;2023-02-28T18:18:41;2.30;99.90
38902;DHT22;24661;53.566;9.910;2023-02-28T18:21:10;4.20;99.90
38902;DHT22;24661;53.566;9.910;2023-02-28T18:23:39;2.60;99.90
38902;DHT22;24661;53.566;9.910;2023-02-28T18:26:13;2.20;99.90